Airfield :
LOGIN :

Register | Disclaimer

   EN    FR    IT 

 










Legend :    VFR   Marginal VFR   IFR   Intensive IFR   Very Intensive IFR
Visi :
Ceiling :
>= 8 km
>= 3000ft
5 to 8 km
1000 to 3000 ft
1500m to 5 km
500 to 1000 ft
800 to 1500m
200 to 500 ft
< 800m
< 200 ft
Symbols :   Thunderstorms  Fog  Heavy snow  Heavy precipitations  Wind > 20 kt
SIGMETs :     Misc.  Thunderstorms  Icing  Turbulence  Mountain Waves  Volcanic Ashes






- Airport Elevation : 13 ft
- IATA code : CAG


LIEE - Cagliari Elmas

CURRENT METAR :
  • 231820Z 12006KT CAVOK 21/14 Q1017

EXPIRED METARs :
  • 231750Z 13007KT 090V160 CAVOK 22/14 Q1017
  • 231720Z 13009KT CAVOK 22/15 Q1017
  • 231650Z 15010KT CAVOK 21/16 Q1016
  • 231620Z 16010KT 9999 FEW050 22/16 Q1016
  • 231550Z 15013KT 9999 FEW050 22/16 Q1016
  • 231520Z 16012KT 9999 FEW050 23/15 Q1016
  • 231450Z 17010KT 9999 FEW050 24/15 Q1016
  • 231420Z 17010KT 9999 FEW050 24/13 Q1016
  • 231350Z 19012KT 9999 FEW050 25/13 Q1016

TAF TAF LIEE
Valid from the 23 at 18:00 until the 24 at 18:00 UTC


231700Z 2318/2418 16010KT 9999 FEW030
BECMG 2318/2320 33006KT
BECMG 2409/2411 16012KT



MET'MAP, your aeronautical weather chart ! - Copyright ORBIFLY December 2007 - Disclaimer

ORBIFLY MET'MAP TEAM :

Programming & Development : Alexandra Zaïnal
Original concept : Baudouin d'Aumeries
Technical & hardware support : Manuel Goepfert
Assistance : Marc-Olivier Méhu




SOURCES & CREDITS :

   NOAA